createdAt,value
2018-05-24T00:00:01.632Z,92.63
2018-05-24T00:01:02.203Z,92.25
2018-05-24T00:02:02.766Z,92.35
2018-05-24T00:03:03.330Z,91.96
2018-05-24T00:04:03.873Z,91.86
2018-05-24T00:05:04.421Z,91.77
2018-05-24T00:06:04.968Z,91.39
2018-05-24T00:07:05.513Z,92.73
2018-05-24T00:08:06.066Z,93.59
2018-05-24T00:09:06.613Z,92.92
2018-05-24T00:10:07.156Z,92.63
2018-05-24T00:11:07.704Z,92.63
2018-05-24T00:12:08.253Z,92.06
2018-05-24T00:13:08.799Z,91.43
2018-05-24T00:14:09.357Z,91.91
2018-05-24T00:15:09.902Z,92.73
2018-05-24T00:16:10.449Z,92.39
2018-05-24T00:17:10.995Z,91.67
2018-05-24T00:18:11.542Z,92.68
2018-05-24T00:19:12.086Z,92.97
2018-05-24T00:20:12.634Z,92.77
2018-05-24T00:21:13.183Z,93.16
2018-05-24T00:22:13.749Z,92.68
2018-05-24T00:23:14.286Z,91.72
2018-05-24T00:24:14.833Z,91.72
2018-05-24T00:25:15.383Z,91.91
2018-05-24T00:26:15.934Z,90.86
2018-05-24T00:27:16.488Z,90.86
2018-05-24T00:28:17.036Z,91.63
2018-05-24T00:29:17.588Z,91.34
2018-05-24T00:30:18.136Z,91.72
2018-05-24T00:31:18.698Z,92.15
2018-05-24T00:32:19.238Z,92.15
2018-05-24T00:33:19.789Z,92.30
2018-05-24T00:34:20.338Z,92.10
2018-05-24T00:35:20.887Z,91.67
2018-05-24T00:36:21.437Z,91.72
2018-05-24T00:37:21.989Z,91.14
2018-05-24T00:38:22.539Z,90.38
2018-05-24T00:39:23.089Z,91.43
2018-05-24T00:40:23.641Z,92.30
2018-05-24T00:41:24.187Z,91.91
2018-05-24T00:42:24.742Z,91.34
2018-05-24T00:43:25.286Z,91.19
2018-05-24T00:44:25.833Z,91.96
2018-05-24T00:45:26.385Z,92.35
2018-05-24T00:46:26.941Z,93.11
2018-05-24T00:47:27.485Z,93.69
2018-05-24T00:48:28.038Z,92.25
2018-05-24T00:49:28.585Z,91.67
2018-05-24T00:50:29.143Z,91.86
2018-05-24T00:51:29.683Z,92.25
2018-05-24T00:52:30.233Z,92.35
2018-05-24T00:53:30.779Z,92.25
2018-05-24T00:54:31.324Z,92.15
2018-05-24T00:55:31.874Z,92.15
2018-05-24T00:56:32.422Z,91.49
2018-05-24T00:57:32.970Z,91.96
2018-05-24T00:58:33.512Z,91.67
2018-05-24T00:59:34.059Z,91.77
2018-05-24T01:00:34.608Z,91.67
2018-05-24T01:01:35.157Z,91.86
2018-05-24T01:02:35.706Z,92.63
2018-05-24T01:03:36.255Z,92.63
2018-05-24T01:04:36.801Z,93.11
2018-05-24T01:05:37.351Z,91.67
2018-05-24T01:06:37.903Z,91.77
2018-05-24T01:07:38.453Z,91.77
2018-05-24T01:08:39.007Z,92.15
2018-05-24T01:09:39.547Z,92.92
2018-05-24T01:10:40.099Z,91.67
2018-05-24T01:11:40.654Z,92.73
2018-05-24T01:12:41.199Z,93.02
2018-05-24T01:13:41.750Z,92.73
2018-05-24T01:14:42.302Z,92.25
2018-05-24T01:15:42.891Z,91.77
2018-05-24T01:16:43.388Z,91.67
2018-05-24T01:17:43.934Z,91.77
2018-05-24T01:18:44.483Z,91.77
2018-05-24T01:19:45.035Z,92.15
2018-05-24T01:20:45.585Z,94.74
2018-05-24T01:21:46.131Z,95.31
2018-05-24T01:22:46.674Z,95.89
2018-05-24T01:23:47.220Z,95.41
2018-05-24T01:24:47.768Z,95.41
2018-05-24T01:25:48.316Z,95.31
2018-05-24T01:26:48.868Z,95.27
2018-05-24T01:27:49.418Z,95.65
2018-05-24T01:28:49.969Z,94.89
2018-05-24T01:29:50.518Z,94.89
2018-05-24T01:30:51.063Z,94.89
2018-05-24T01:31:51.620Z,94.89
2018-05-24T01:32:52.175Z,94.89
2018-05-24T01:33:52.721Z,95.36
2018-05-24T01:34:53.269Z,95.36
2018-05-24T01:35:53.818Z,95.65
2018-05-24T01:36:54.368Z,96.51
2018-05-24T01:37:54.913Z,96.22
2018-05-24T01:38:55.460Z,96.27
2018-05-24T01:39:56.005Z,95.94
2018-05-24T01:40:56.548Z,96.22
2018-05-24T01:41:57.097Z,96.37
2018-05-24T01:42:57.642Z,96.84
2018-05-24T01:43:58.192Z,96.84
2018-05-24T01:44:58.741Z,96.94
2018-05-24T01:45:59.291Z,97.04
2018-05-24T01:46:59.835Z,97.13
2018-05-24T01:48:00.385Z,97.33
2018-05-24T01:49:00.937Z,97.33
2018-05-24T01:50:01.488Z,97.52
2018-05-24T01:51:02.042Z,97.80
2018-05-24T01:52:02.590Z,97.90
2018-05-24T01:53:03.141Z,97.61
2018-05-24T01:54:03.692Z,98.19
2018-05-24T01:55:04.280Z,97.71
2018-05-24T01:56:04.788Z,98.38
2018-05-24T01:57:05.338Z,97.90
2018-05-24T01:58:05.887Z,98.00
2018-05-24T01:59:06.428Z,97.33
2018-05-24T02:00:06.973Z,97.71
2018-05-24T02:01:07.523Z,98.38
2018-05-24T02:02:08.071Z,99.15
2018-05-24T02:03:08.618Z,99.81
2018-05-24T02:04:09.161Z,99.91
2018-05-24T02:05:09.710Z,99.33
2018-05-24T02:06:10.264Z,99.52
2018-05-24T02:07:10.812Z,99.24
2018-05-24T02:08:11.361Z,99.99
2018-05-24T02:09:11.915Z,99.99
2018-05-24T02:10:12.463Z,99.99
2018-05-24T02:11:13.010Z,99.99
2018-05-24T02:12:13.564Z,99.99
2018-05-24T02:13:14.114Z,99.99
2018-05-24T02:14:14.664Z,99.86
2018-05-24T02:15:15.206Z,99.48
2018-05-24T02:16:15.757Z,99.99
2018-05-24T02:17:16.304Z,99.99
2018-05-24T02:18:16.856Z,99.99
2018-05-24T02:19:17.395Z,99.99
2018-05-24T02:20:17.946Z,99.99
2018-05-24T02:21:18.494Z,99.99
2018-05-24T02:22:19.040Z,99.99
2018-05-24T02:23:19.583Z,99.99
2018-05-24T02:24:20.133Z,99.99
2018-05-24T02:25:20.688Z,99.99
2018-05-24T02:26:21.236Z,99.86
2018-05-24T02:27:21.781Z,99.76
2018-05-24T02:28:22.327Z,99.29
2018-05-24T02:29:22.876Z,98.81
2018-05-24T02:30:23.420Z,98.81
2018-05-24T02:31:23.965Z,98.76
2018-05-24T02:32:24.520Z,99.10
2018-05-24T02:33:25.066Z,98.81
2018-05-24T02:34:25.663Z,99.48
2018-05-24T02:35:26.160Z,98.90
2018-05-24T02:36:26.710Z,98.81
2018-05-24T02:37:27.262Z,98.52
2018-05-24T02:38:27.811Z,99.48
2018-05-24T02:39:28.363Z,99.33
2018-05-24T02:40:28.905Z,99.29
2018-05-24T02:41:29.453Z,99.29
2018-05-24T02:42:29.998Z,99.19
2018-05-24T02:43:30.547Z,99.67
2018-05-24T02:44:31.098Z,99.81
2018-05-24T02:45:31.648Z,99.48
2018-05-24T02:46:32.198Z,99.76
2018-05-24T02:47:32.776Z,99.67
2018-05-24T02:48:33.290Z,99.99
2018-05-24T02:49:33.838Z,99.99
2018-05-24T02:50:34.390Z,99.81
2018-05-24T02:51:34.950Z,99.99
2018-05-24T02:52:35.487Z,99.99
2018-05-24T02:53:36.028Z,99.52
2018-05-24T02:54:36.574Z,99.05
2018-05-24T02:55:37.123Z,98.00
2018-05-24T02:56:37.669Z,98.09
2018-05-24T02:57:38.220Z,97.23
2018-05-24T02:58:38.757Z,97.13
2018-05-24T02:59:39.307Z,97.04
2018-05-24T03:00:39.859Z,98.00
2018-05-24T03:01:40.575Z,97.33
2018-05-24T03:02:41.154Z,97.90
2018-05-24T03:03:41.617Z,97.71
2018-05-24T03:04:42.168Z,97.52
2018-05-24T03:05:42.720Z,96.84
2018-05-24T03:06:43.268Z,97.13
2018-05-24T03:07:43.814Z,96.84
2018-05-24T03:08:44.365Z,96.84
2018-05-24T03:09:44.918Z,97.04
2018-05-24T03:10:45.544Z,96.84
2018-05-24T03:11:46.012Z,97.13
2018-05-24T03:12:46.563Z,96.94
2018-05-24T03:13:47.110Z,97.90
2018-05-24T03:14:47.817Z,98.66
2018-05-24T03:15:48.322Z,99.52
2018-05-24T03:16:48.872Z,99.33
2018-05-24T03:17:49.421Z,99.99
2018-05-24T03:18:49.969Z,99.99
2018-05-24T03:19:50.521Z,99.91
2018-05-24T03:20:51.069Z,99.99
2018-05-24T03:21:51.621Z,99.99
2018-05-24T03:22:52.173Z,99.52
2018-05-24T03:23:52.726Z,98.86
2018-05-24T03:24:53.278Z,98.66
2018-05-24T03:25:53.830Z,98.09
2018-05-24T03:26:54.375Z,98.28
2018-05-24T03:27:54.926Z,98.66
2018-05-24T03:28:55.481Z,98.38
2018-05-24T03:29:56.033Z,97.80
2018-05-24T03:30:56.589Z,97.52
2018-05-24T03:31:57.139Z,98.09
2018-05-24T03:32:57.689Z,98.19
2018-05-24T03:33:58.239Z,98.19
2018-05-24T03:34:58.789Z,99.81
2018-05-24T03:35:59.347Z,99.99
2018-05-24T03:36:59.892Z,99.99
2018-05-24T03:38:00.442Z,99.99
2018-05-24T03:39:00.993Z,99.99
2018-05-24T03:40:01.538Z,99.81
2018-05-24T03:41:02.092Z,99.33
2018-05-24T03:42:02.648Z,99.52
2018-05-24T03:43:03.200Z,99.99
2018-05-24T03:44:03.756Z,99.99
2018-05-24T03:45:04.311Z,99.99
2018-05-24T03:46:04.865Z,99.99
2018-05-24T03:47:05.624Z,99.72
2018-05-24T03:48:06.167Z,99.52
2018-05-24T03:49:06.717Z,99.05
2018-05-24T03:50:07.269Z,98.57
2018-05-24T03:51:07.818Z,98.95
2018-05-24T03:52:08.465Z,98.57
2018-05-24T03:53:08.923Z,98.95
2018-05-24T03:54:09.476Z,98.09
2018-05-24T03:55:10.033Z,98.00
2018-05-24T03:56:10.587Z,98.38
2018-05-24T03:57:11.145Z,98.38
2018-05-24T03:58:11.701Z,98.66
2018-05-24T03:59:12.250Z,99.81
2018-05-24T04:00:12.910Z,99.52
2018-05-24T04:01:13.460Z,99.72
2018-05-24T04:02:14.017Z,99.81
2018-05-24T04:03:14.573Z,99.72
2018-05-24T04:04:15.124Z,98.47
2018-05-24T04:05:15.683Z,98.28
2018-05-24T04:06:16.230Z,97.80
2018-05-24T04:07:16.790Z,97.90
2018-05-24T04:08:17.345Z,98.66
2018-05-24T04:09:17.903Z,98.86
2018-05-24T04:10:18.452Z,99.05
2018-05-24T04:11:19.013Z,99.24
2018-05-24T04:12:19.565Z,99.52
2018-05-24T04:13:20.121Z,99.24
2018-05-24T04:14:20.672Z,98.66
2018-05-24T04:15:21.223Z,98.57
2018-05-24T04:16:21.778Z,98.76
2018-05-24T04:17:22.448Z,98.76
2018-05-24T04:18:22.992Z,97.71
2018-05-24T04:19:23.539Z,97.90
2018-05-24T04:20:24.088Z,97.71
2018-05-24T04:21:24.644Z,97.33
2018-05-24T04:22:25.192Z,96.84
2018-05-24T04:23:25.740Z,97.33
2018-05-24T04:24:26.292Z,97.04
2018-05-24T04:25:26.841Z,97.04
2018-05-24T04:26:27.393Z,96.84
2018-05-24T04:27:27.945Z,96.56
2018-05-24T04:28:28.493Z,96.94
2018-05-24T04:29:29.041Z,96.94
2018-05-24T04:30:29.596Z,96.94
2018-05-24T04:31:30.240Z,97.13
2018-05-24T04:32:30.707Z,96.08
2018-05-24T04:33:31.266Z,96.18
2018-05-24T04:34:31.816Z,96.08
2018-05-24T04:35:32.374Z,96.18
2018-05-24T04:36:32.946Z,96.75
2018-05-24T04:37:33.491Z,96.75
2018-05-24T04:38:34.043Z,96.08
2018-05-24T04:39:34.600Z,96.27
2018-05-24T04:40:35.156Z,95.70
2018-05-24T04:41:35.709Z,95.94
2018-05-24T04:42:36.263Z,95.94
2018-05-24T04:43:36.823Z,95.36
2018-05-24T04:44:37.374Z,94.79
2018-05-24T04:45:37.924Z,94.89
2018-05-24T04:46:38.477Z,94.60
2018-05-24T04:47:39.028Z,93.64
2018-05-24T04:48:39.583Z,93.54
2018-05-24T04:49:40.142Z,93.45
2018-05-24T04:50:40.696Z,93.45
2018-05-24T04:51:41.253Z,92.87
2018-05-24T04:52:41.807Z,92.58
2018-05-24T04:53:42.361Z,93.11
2018-05-24T04:54:42.920Z,92.87
2018-05-24T04:55:43.476Z,92.92
2018-05-24T04:56:44.029Z,92.35
2018-05-24T04:57:44.588Z,92.35
2018-05-24T04:58:45.142Z,92.35
2018-05-24T04:59:45.695Z,92.25
2018-05-24T05:00:46.250Z,92.82
2018-05-24T05:01:46.806Z,92.35
2018-05-24T05:02:47.364Z,92.92
2018-05-24T05:03:47.915Z,92.30
2018-05-24T05:04:48.474Z,90.90
2018-05-24T05:05:49.031Z,89.85
2018-05-24T05:06:49.589Z,89.12
2018-05-24T05:07:50.141Z,88.17
2018-05-24T05:08:50.701Z,87.40
2018-05-24T05:09:51.259Z,87.59
2018-05-24T05:10:51.815Z,87.68
2018-05-24T05:11:52.385Z,87.82
2018-05-24T05:12:52.941Z,86.68
2018-05-24T05:13:53.503Z,86.14
2018-05-24T05:14:54.068Z,85.57
2018-05-24T05:15:54.627Z,84.99
2018-05-24T05:16:55.192Z,85.32
2018-05-24T05:17:55.751Z,84.60
2018-05-24T05:18:56.310Z,84.22
2018-05-24T05:19:56.868Z,84.89
2018-05-24T05:20:57.433Z,85.57
2018-05-24T05:21:57.993Z,86.00
2018-05-24T05:22:58.567Z,86.77
2018-05-24T05:23:59.116Z,86.96
2018-05-24T05:24:59.673Z,87.35
2018-05-24T05:26:00.233Z,87.40
2018-05-24T05:27:00.792Z,87.59
2018-05-24T05:28:01.350Z,87.98
2018-05-24T05:29:01.908Z,89.12
2018-05-24T05:30:02.463Z,89.47
2018-05-24T05:31:03.019Z,89.89
2018-05-24T05:32:03.572Z,90.14
2018-05-24T05:33:04.128Z,90.04
2018-05-24T05:34:04.690Z,90.33
2018-05-24T05:35:05.243Z,90.52
2018-05-24T05:36:05.801Z,90.71
2018-05-24T05:37:06.359Z,91.00
2018-05-24T05:38:06.990Z,90.71
2018-05-24T05:39:07.469Z,90.90
2018-05-24T05:40:08.115Z,90.81
2018-05-24T05:41:08.575Z,91.00
2018-05-24T05:42:09.125Z,90.42
2018-05-24T05:43:09.678Z,91.38
2018-05-24T05:44:10.231Z,91.38
2018-05-24T05:45:10.784Z,91.57
2018-05-24T05:46:11.341Z,91.19
2018-05-24T05:47:11.893Z,91.38
2018-05-24T05:48:12.452Z,91.38
2018-05-24T05:49:13.029Z,91.38
2018-05-24T05:50:13.597Z,91.86
2018-05-24T05:51:14.168Z,92.05
2018-05-24T05:52:14.757Z,91.48
2018-05-24T05:53:15.325Z,91.19
2018-05-24T05:54:15.894Z,91.38
2018-05-24T05:55:16.488Z,91.28
2018-05-24T05:56:17.069Z,91.28
2018-05-24T05:57:17.637Z,91.57
2018-05-24T05:58:18.206Z,91.86
2018-05-24T05:59:18.776Z,92.34
2018-05-24T06:00:19.367Z,92.24
2018-05-24T06:01:19.936Z,92.44
2018-05-24T06:02:20.506Z,92.44
2018-05-24T06:03:21.074Z,93.01
2018-05-24T06:04:21.644Z,92.91
2018-05-24T06:05:22.210Z,93.49
2018-05-24T06:06:22.781Z,93.35
2018-05-24T06:07:23.371Z,93.73
2018-05-24T06:08:23.939Z,93.83
2018-05-24T06:09:24.512Z,93.44
2018-05-24T06:10:25.076Z,93.83
2018-05-24T06:11:25.646Z,93.93
2018-05-24T06:12:26.215Z,94.12
2018-05-24T06:13:26.786Z,94.21
2018-05-24T06:14:27.338Z,94.31
2018-05-24T06:15:27.905Z,94.79
2018-05-24T06:16:28.449Z,94.69
2018-05-24T06:17:29.002Z,94.40
2018-05-24T06:18:29.561Z,94.89
2018-05-24T06:19:30.123Z,94.54
2018-05-24T06:20:30.672Z,94.93
2018-05-24T06:21:31.288Z,94.64
2018-05-24T06:22:31.792Z,94.45
2018-05-24T06:23:32.352Z,94.64
2018-05-24T06:24:32.915Z,94.93
2018-05-24T06:25:33.475Z,94.74
2018-05-24T06:26:34.039Z,94.84
2018-05-24T06:27:34.595Z,94.45
2018-05-24T06:28:35.225Z,94.74
2018-05-24T06:29:35.718Z,94.40
2018-05-24T06:30:36.267Z,94.12
2018-05-24T06:31:36.833Z,92.96
2018-05-24T06:32:37.393Z,92.96
2018-05-24T06:33:37.956Z,93.01
2018-05-24T06:34:38.496Z,92.53
2018-05-24T06:35:39.051Z,92.14
2018-05-24T06:36:39.612Z,91.76
2018-05-24T06:37:40.166Z,91.47
2018-05-24T06:38:40.724Z,91.66
2018-05-24T06:39:41.284Z,91.90
2018-05-24T06:40:41.850Z,91.04
2018-05-24T06:41:42.414Z,90.94
2018-05-24T06:42:43.032Z,90.27
2018-05-24T06:43:43.596Z,90.08
2018-05-24T06:44:44.155Z,89.50
2018-05-24T06:45:44.731Z,89.64
2018-05-24T06:46:45.281Z,89.64
2018-05-24T06:47:45.847Z,88.92
2018-05-24T06:48:46.396Z,87.92
2018-05-24T06:49:46.961Z,87.38
2018-05-24T06:50:47.524Z,87.92
2018-05-24T06:51:48.087Z,87.76
2018-05-24T06:52:48.648Z,87.76
2018-05-24T06:53:49.231Z,87.96
2018-05-24T06:54:49.771Z,87.76
2018-05-24T06:55:50.333Z,87.72
2018-05-24T06:56:50.893Z,88.49
2018-05-24T06:57:51.457Z,88.30
2018-05-24T06:58:52.017Z,88.49
2018-05-24T06:59:52.624Z,88.68
2018-05-24T07:00:53.143Z,88.68
2018-05-24T07:01:53.713Z,88.87
2018-05-24T07:02:54.272Z,88.39
2018-05-24T07:03:54.833Z,88.30
2018-05-24T07:04:55.389Z,88.49
2018-05-24T07:05:55.956Z,88.59
2018-05-24T07:06:56.507Z,88.44
2018-05-24T07:07:57.068Z,88.24
2018-05-24T07:08:57.631Z,87.67
2018-05-24T07:09:58.196Z,87.29
2018-05-24T07:10:58.845Z,87.42
2018-05-24T07:11:59.314Z,86.99
2018-05-24T07:12:59.887Z,85.54
2018-05-24T07:14:00.449Z,84.91
2018-05-24T07:15:01.033Z,84.23
2018-05-24T07:16:01.586Z,83.61
2018-05-24T07:17:02.148Z,83.31
2018-05-24T07:18:02.718Z,83.45
2018-05-24T07:19:03.275Z,82.43
2018-05-24T07:20:03.843Z,80.99
2018-05-24T07:21:04.408Z,80.56
2018-05-24T07:22:04.980Z,80.51
2018-05-24T07:23:05.540Z,80.41
2018-05-24T07:24:06.104Z,81.04
2018-05-24T07:25:06.665Z,82.39
2018-05-24T07:26:07.229Z,81.62
2018-05-24T07:27:07.802Z,82.20
2018-05-24T07:28:08.359Z,82.78
2018-05-24T07:29:08.932Z,83.36
2018-05-24T07:30:09.498Z,82.43
2018-05-24T07:31:10.061Z,82.53
2018-05-24T07:32:10.621Z,82.34
2018-05-24T07:33:11.181Z,82.72
2018-05-24T07:34:11.749Z,82.68
2018-05-24T07:35:12.321Z,82.97
2018-05-24T07:36:12.880Z,82.68
2018-05-24T07:37:13.445Z,83.45
2018-05-24T07:38:14.010Z,83.94
2018-05-24T07:39:14.578Z,83.26
2018-05-24T07:40:15.139Z,83.55
2018-05-24T07:41:15.704Z,83.64
2018-05-24T07:42:16.270Z,84.18
2018-05-24T07:43:16.840Z,84.86
2018-05-24T07:44:17.411Z,84.76
2018-05-24T07:45:17.989Z,85.14
2018-05-24T07:46:18.550Z,84.32
2018-05-24T07:47:19.120Z,83.94
2018-05-24T07:48:19.685Z,84.61
2018-05-24T07:49:20.260Z,83.94
2018-05-24T07:50:20.825Z,85.28
2018-05-24T07:51:21.391Z,85.03
2018-05-24T07:52:21.961Z,83.78
2018-05-24T07:53:22.529Z,83.88
2018-05-24T07:54:23.085Z,82.72
2018-05-24T07:55:23.680Z,82.82
2018-05-24T07:56:24.278Z,83.50
2018-05-24T07:57:24.797Z,83.94
2018-05-24T07:58:25.361Z,84.80
2018-05-24T07:59:25.933Z,84.80
2018-05-24T08:00:26.500Z,84.86
2018-05-24T08:01:27.066Z,84.22
2018-05-24T08:02:27.624Z,84.09
2018-05-24T08:03:28.183Z,83.84
2018-05-24T08:04:28.745Z,83.55
2018-05-24T08:05:29.309Z,83.94
2018-05-24T08:06:29.889Z,83.64
2018-05-24T08:07:30.435Z,84.03
2018-05-24T08:08:31.009Z,83.40
2018-05-24T08:09:31.568Z,82.82
2018-05-24T08:10:32.134Z,81.47
2018-05-24T08:11:32.704Z,81.76
2018-05-24T08:12:33.269Z,79.93
2018-05-24T08:13:33.834Z,79.77
2018-05-24T08:14:34.392Z,78.66
2018-05-24T08:15:34.962Z,77.59
2018-05-24T08:16:35.540Z,76.72
2018-05-24T08:17:36.108Z,76.57
2018-05-24T08:18:36.678Z,75.79
2018-05-24T08:19:37.250Z,74.29
2018-05-24T08:20:37.816Z,74.58
2018-05-24T08:21:38.387Z,74.96
2018-05-24T08:22:38.973Z,75.78
2018-05-24T08:23:39.529Z,75.48
2018-05-24T08:24:40.101Z,74.38
2018-05-24T08:25:40.663Z,74.68
2018-05-24T08:26:41.233Z,75.16
2018-05-24T08:27:41.801Z,75.10
2018-05-24T08:28:42.367Z,73.88
2018-05-24T08:29:42.941Z,73.63
2018-05-24T08:30:43.523Z,72.56
2018-05-24T08:31:44.099Z,72.40
2018-05-24T08:32:44.669Z,72.02
2018-05-24T08:33:45.252Z,71.66
2018-05-24T08:34:45.822Z,71.76
2018-05-24T08:35:46.403Z,69.85
2018-05-24T08:36:46.978Z,71.31
2018-05-24T08:37:47.636Z,70.83
2018-05-24T08:38:48.135Z,68.92
2018-05-24T08:39:48.701Z,68.89
2018-05-24T08:40:49.287Z,68.92
2018-05-24T08:41:49.914Z,68.63
2018-05-24T08:42:50.414Z,67.66
2018-05-24T08:43:50.985Z,67.57
2018-05-24T08:44:51.558Z,67.18
2018-05-24T08:45:52.137Z,67.82
2018-05-24T08:46:52.707Z,68.12
2018-05-24T08:47:53.278Z,68.30
2018-05-24T08:48:53.845Z,67.95
2018-05-24T08:49:54.411Z,66.79
2018-05-24T08:50:54.988Z,68.05
2018-05-24T08:51:55.557Z,67.85
2018-05-24T08:52:56.134Z,67.85
2018-05-24T08:53:56.700Z,67.76
2018-05-24T08:54:57.277Z,66.89
2018-05-24T08:55:57.851Z,67.02
2018-05-24T08:56:58.551Z,66.72
2018-05-24T08:57:59.123Z,67.40
2018-05-24T08:58:59.692Z,66.66
2018-05-24T09:00:00.261Z,65.43
2018-05-24T09:01:00.831Z,65.43
2018-05-24T09:02:01.408Z,66.99
2018-05-24T09:03:01.968Z,67.08
2018-05-24T09:04:02.541Z,66.30
2018-05-24T09:05:03.125Z,65.24
2018-05-24T09:06:03.697Z,64.17
2018-05-24T09:07:04.257Z,64.59
2018-05-24T09:08:04.830Z,63.91
2018-05-24T09:09:05.515Z,64.11
2018-05-24T09:10:05.985Z,64.01
2018-05-24T09:11:06.555Z,63.94
2018-05-24T09:12:07.130Z,63.20
2018-05-24T09:13:07.710Z,63.75
2018-05-24T09:14:08.282Z,63.45
2018-05-24T09:15:08.851Z,62.77
2018-05-24T09:16:09.425Z,61.90
2018-05-24T09:17:09.998Z,62.23
2018-05-24T09:18:10.570Z,62.45
2018-05-24T09:19:11.149Z,63.10
2018-05-24T09:20:11.778Z,63.90
2018-05-24T09:21:12.287Z,62.45
2018-05-24T09:22:12.885Z,61.64
2018-05-24T09:23:13.437Z,62.35
2018-05-24T09:24:14.010Z,62.48
2018-05-24T09:25:14.582Z,62.57
2018-05-24T09:26:15.153Z,62.74
2018-05-24T09:27:15.727Z,62.19
2018-05-24T09:28:16.298Z,62.29
2018-05-24T09:29:16.889Z,61.02
2018-05-24T09:30:17.443Z,61.67
2018-05-24T09:31:18.027Z,61.87
2018-05-24T09:32:18.605Z,61.54
2018-05-24T09:33:19.177Z,63.20
2018-05-24T09:34:19.746Z,63.20
2018-05-24T09:35:20.316Z,63.00
2018-05-24T09:36:20.954Z,63.10
2018-05-24T09:37:21.502Z,62.65
2018-05-24T09:38:22.065Z,63.88
2018-05-24T09:39:22.628Z,64.30
2018-05-24T09:40:23.202Z,63.71
2018-05-24T09:41:23.776Z,63.71
2018-05-24T09:42:24.349Z,64.30
2018-05-24T09:43:24.922Z,65.05
2018-05-24T09:44:25.489Z,64.82
2018-05-24T09:45:26.065Z,65.82
2018-05-24T09:46:26.645Z,65.47
2018-05-24T09:47:27.217Z,66.27
2018-05-24T09:48:27.785Z,65.11
2018-05-24T09:49:28.357Z,64.85
2018-05-24T09:50:28.928Z,64.17
2018-05-24T09:51:29.499Z,64.00
2018-05-24T09:52:30.074Z,63.52
2018-05-24T09:53:30.649Z,62.90
2018-05-24T09:54:31.224Z,63.32
2018-05-24T09:55:31.834Z,63.68
2018-05-24T09:56:32.385Z,63.17
2018-05-24T09:57:32.960Z,64.11
2018-05-24T09:58:33.614Z,65.56
2018-05-24T09:59:34.100Z,65.66
2018-05-24T10:00:34.667Z,65.75
2018-05-24T10:01:35.234Z,66.02
2018-05-24T10:02:35.805Z,66.11
2018-05-24T10:03:36.380Z,65.43
2018-05-24T10:04:36.985Z,66.40
2018-05-24T10:05:37.523Z,67.73
2018-05-24T10:06:38.089Z,68.02
2018-05-24T10:07:38.652Z,67.21
2018-05-24T10:08:39.223Z,67.99
2018-05-24T10:09:39.794Z,67.99
2018-05-24T10:10:40.395Z,67.89
2018-05-24T10:11:40.942Z,67.24
2018-05-24T10:12:41.513Z,66.95
2018-05-24T10:13:42.089Z,67.08
2018-05-24T10:14:42.665Z,66.21
2018-05-24T10:15:43.237Z,67.08
2018-05-24T10:16:43.821Z,67.47
2018-05-24T10:17:44.400Z,66.50
2018-05-24T10:18:44.972Z,66.99
2018-05-24T10:19:45.567Z,67.14
2018-05-24T10:20:46.153Z,67.24
2018-05-24T10:21:46.932Z,67.44
2018-05-24T10:22:47.519Z,67.24
2018-05-24T10:23:48.101Z,67.24
2018-05-24T10:24:48.672Z,66.66
2018-05-24T10:25:49.252Z,66.53
2018-05-24T10:26:49.824Z,67.31
2018-05-24T10:27:50.407Z,67.14
2018-05-24T10:28:50.984Z,68.28
2018-05-24T10:29:51.544Z,68.28
2018-05-24T10:30:52.117Z,68.02
2018-05-24T10:31:52.687Z,66.69
2018-05-24T10:32:53.260Z,66.30
2018-05-24T10:33:53.930Z,66.92
2018-05-24T10:34:54.432Z,64.91
2018-05-24T10:35:54.986Z,64.36
2018-05-24T10:36:55.690Z,64.56
2018-05-24T10:37:56.272Z,64.07
2018-05-24T10:38:56.861Z,63.90
2018-05-24T10:39:57.445Z,63.10
2018-05-24T10:40:58.026Z,64.07
2018-05-24T10:41:58.700Z,63.39
2018-05-24T10:42:59.194Z,63.13
2018-05-24T10:43:59.779Z,63.23
2018-05-24T10:45:00.381Z,63.26
2018-05-24T10:46:00.980Z,61.80
2018-05-24T10:47:01.551Z,63.23
2018-05-24T10:48:02.120Z,63.71
2018-05-24T10:49:02.702Z,63.52
2018-05-24T10:50:03.284Z,63.26
2018-05-24T10:51:03.951Z,64.14
2018-05-24T10:52:04.408Z,64.14
2018-05-24T10:53:04.981Z,64.91
2018-05-24T10:54:05.596Z,65.17
2018-05-24T10:55:06.115Z,65.14
2018-05-24T10:56:06.704Z,66.02
2018-05-24T10:57:07.244Z,67.34
2018-05-24T10:58:07.821Z,68.31
2018-05-24T10:59:08.392Z,68.86
2018-05-24T11:00:08.965Z,69.96
2018-05-24T11:01:09.535Z,68.73
2018-05-24T11:02:10.106Z,67.18
2018-05-24T11:03:10.720Z,66.44
2018-05-24T11:04:11.253Z,66.56
2018-05-24T11:05:11.825Z,67.05
2018-05-24T11:06:12.394Z,66.44
2018-05-24T11:07:12.965Z,67.21
2018-05-24T11:08:13.535Z,66.92
2018-05-24T11:09:14.100Z,66.34
2018-05-24T11:10:14.669Z,66.44
2018-05-24T11:11:15.255Z,66.89
2018-05-24T11:12:15.833Z,67.18
2018-05-24T11:13:16.404Z,67.96
2018-05-24T11:14:16.972Z,67.47
2018-05-24T11:15:17.539Z,68.70
2018-05-24T11:16:18.102Z,68.76
2018-05-24T11:17:18.669Z,70.18
2018-05-24T11:18:19.241Z,71.47
2018-05-24T11:19:19.808Z,72.53
2018-05-24T11:20:20.382Z,73.31
2018-05-24T11:21:20.953Z,73.60
2018-05-24T11:22:21.529Z,73.05
2018-05-24T11:23:22.101Z,72.02
2018-05-24T11:24:22.678Z,71.09
2018-05-24T11:25:23.245Z,70.51
2018-05-24T11:26:23.817Z,70.21
2018-05-24T11:27:24.392Z,70.99
2018-05-24T11:28:24.960Z,71.86
2018-05-24T11:29:25.537Z,70.21
2018-05-24T11:30:26.101Z,68.96
2018-05-24T11:31:26.671Z,69.15
2018-05-24T11:32:27.232Z,68.76
2018-05-24T11:33:27.803Z,69.09
2018-05-24T11:34:28.428Z,68.99
2018-05-24T11:35:29.049Z,70.12
2018-05-24T11:36:29.612Z,71.09
2018-05-24T11:37:30.174Z,71.73
2018-05-24T11:38:30.750Z,72.61
2018-05-24T11:39:31.341Z,73.13
2018-05-24T11:40:31.902Z,73.09
2018-05-24T11:41:32.477Z,73.77
2018-05-24T11:42:33.054Z,73.96
2018-05-24T11:43:33.615Z,74.45
2018-05-24T11:44:34.182Z,73.83
2018-05-24T11:45:34.805Z,74.80
2018-05-24T11:46:35.369Z,75.48
2018-05-24T11:47:35.952Z,75.42
2018-05-24T11:48:36.509Z,73.48
2018-05-24T11:49:37.137Z,74.68
2018-05-24T11:50:37.703Z,72.93
2018-05-24T11:51:38.272Z,73.80
2018-05-24T11:52:38.840Z,73.26
2018-05-24T11:53:39.409Z,72.67
2018-05-24T11:54:39.969Z,72.97
2018-05-24T11:55:40.599Z,73.07
2018-05-24T11:56:41.137Z,71.45
2018-05-24T11:57:41.720Z,71.61
2018-05-24T11:58:42.292Z,71.74
2018-05-24T11:59:42.861Z,71.36
2018-05-24T12:00:43.430Z,70.99
2018-05-24T12:01:44.021Z,72.55
2018-05-24T12:02:44.579Z,72.00
2018-05-24T12:03:45.157Z,71.94
2018-05-24T12:04:45.727Z,70.19
2018-05-24T12:05:46.285Z,71.45
2018-05-24T12:06:46.857Z,71.74
2018-05-24T12:07:47.427Z,71.67
2018-05-24T12:08:47.992Z,72.25
2018-05-24T12:09:48.583Z,72.35
2018-05-24T12:10:49.160Z,73.71
2018-05-24T12:11:49.737Z,74.54
2018-05-24T12:12:50.310Z,74.54
2018-05-24T12:13:50.949Z,74.99
2018-05-24T12:14:51.508Z,75.38
2018-05-24T12:15:52.091Z,75.77
2018-05-24T12:16:52.664Z,75.67
2018-05-24T12:17:53.236Z,75.38
2018-05-24T12:18:53.810Z,75.38
2018-05-24T12:19:54.392Z,75.63
2018-05-24T12:20:54.967Z,75.73
2018-05-24T12:21:55.568Z,75.67
2018-05-24T12:22:56.138Z,75.09
2018-05-24T12:23:56.714Z,75.44
2018-05-24T12:24:57.303Z,76.21
2018-05-24T12:25:57.872Z,75.92
2018-05-24T12:26:58.440Z,76.66
2018-05-24T12:27:59.034Z,77.14
2018-05-24T12:28:59.605Z,78.21
2018-05-24T12:30:00.176Z,77.92
2018-05-24T12:31:00.745Z,78.66
2018-05-24T12:32:01.328Z,78.66
2018-05-24T12:33:01.876Z,78.66
2018-05-24T12:34:02.444Z,79.43
2018-05-24T12:35:03.006Z,78.85
2018-05-24T12:36:03.570Z,79.62
2018-05-24T12:37:04.135Z,80.20
2018-05-24T12:38:04.708Z,80.11
2018-05-24T12:39:05.312Z,79.91
2018-05-24T12:40:05.854Z,79.91
2018-05-24T12:41:06.413Z,80.01
2018-05-24T12:42:06.988Z,80.30
2018-05-24T12:43:07.568Z,79.82
2018-05-24T12:44:08.135Z,80.01
2018-05-24T12:45:08.714Z,79.91
2018-05-24T12:46:09.301Z,79.87
2018-05-24T12:47:09.848Z,80.40
2018-05-24T12:48:10.409Z,80.01
2018-05-24T12:49:10.977Z,79.43
2018-05-24T12:50:11.576Z,80.07
2018-05-24T12:51:12.166Z,79.52
2018-05-24T12:52:12.764Z,79.43
2018-05-24T12:53:13.336Z,79.76
2018-05-24T12:54:13.905Z,78.11
2018-05-24T12:55:14.500Z,78.75
2018-05-24T12:56:15.110Z,78.02
2018-05-24T12:57:15.694Z,78.31
2018-05-24T12:58:16.261Z,77.70
2018-05-24T12:59:16.822Z,76.25